sensor_id;sensor_type;location;lat;lon;timestamp;temperature;humidity
40289;DHT22;28991;52.028;5.526;2024-03-08T00:02:03;18.60;44.10
40289;DHT22;28991;52.028;5.526;2024-03-08T00:04:29;18.60;44.10
40289;DHT22;28991;52.028;5.526;2024-03-08T00:06:54;18.60;44.10
40289;DHT22;28991;52.028;5.526;2024-03-08T00:09:20;18.70;44.20
40289;DHT22;28991;52.028;5.526;2024-03-08T00:11:47;18.70;44.20
40289;DHT22;28991;52.028;5.526;2024-03-08T00:14:14;18.60;44.20
40289;DHT22;28991;52.028;5.526;2024-03-08T00:16:39;18.70;44.30
40289;DHT22;28991;52.028;5.526;2024-03-08T00:19:09;18.60;44.20
40289;DHT22;28991;52.028;5.526;2024-03-08T00:21:34;18.70;44.30
40289;DHT22;28991;52.028;5.526;2024-03-08T00:24:01;18.70;44.30
40289;DHT22;28991;52.028;5.526;2024-03-08T00:26:26;18.70;44.30
40289;DHT22;28991;52.028;5.526;2024-03-08T00:28:52;18.70;44.30
40289;DHT22;28991;52.028;5.526;2024-03-08T00:31:19;18.60;44.30
40289;DHT22;28991;52.028;5.526;2024-03-08T00:33:45;18.60;44.40
40289;DHT22;28991;52.028;5.526;2024-03-08T00:36:11;18.80;44.50
40289;DHT22;28991;52.028;5.526;2024-03-08T00:38:36;18.70;44.40
40289;DHT22;28991;52.028;5.526;2024-03-08T00:41:02;18.70;44.40
40289;DHT22;28991;52.028;5.526;2024-03-08T00:43:27;18.60;44.40
40289;DHT22;28991;52.028;5.526;2024-03-08T00:45:55;18.70;44.40
40289;DHT22;28991;52.028;5.526;2024-03-08T00:48:21;18.70;44.40
40289;DHT22;28991;52.028;5.526;2024-03-08T00:50:46;18.60;44.40
40289;DHT22;28991;52.028;5.526;2024-03-08T00:53:12;18.60;44.40
40289;DHT22;28991;52.028;5.526;2024-03-08T00:55:38;18.60;44.40
40289;DHT22;28991;52.028;5.526;2024-03-08T00:58:04;18.40;44.30
40289;DHT22;28991;52.028;5.526;2024-03-08T01:00:30;18.60;44.40
40289;DHT22;28991;52.028;5.526;2024-03-08T01:02:55;18.60;44.40
40289;DHT22;28991;52.028;5.526;2024-03-08T01:05:21;18.60;44.50
40289;DHT22;28991;52.028;5.526;2024-03-08T01:07:49;18.60;44.50
40289;DHT22;28991;52.028;5.526;2024-03-08T01:10:15;18.60;44.50
40289;DHT22;28991;52.028;5.526;2024-03-08T01:12:41;18.60;44.50
40289;DHT22;28991;52.028;5.526;2024-03-08T01:15:09;18.60;44.50
40289;DHT22;28991;52.028;5.526;2024-03-08T01:17:35;18.50;44.40
40289;DHT22;28991;52.028;5.526;2024-03-08T01:20:01;18.60;44.50
40289;DHT22;28991;52.028;5.526;2024-03-08T01:22:28;18.60;44.50
40289;DHT22;28991;52.028;5.526;2024-03-08T01:24:55;18.50;44.40
40289;DHT22;28991;52.028;5.526;2024-03-08T01:27:21;18.60;44.60
40289;DHT22;28991;52.028;5.526;2024-03-08T01:29:47;18.60;44.50
40289;DHT22;28991;52.028;5.526;2024-03-08T01:32:13;18.60;44.60
40289;DHT22;28991;52.028;5.526;2024-03-08T01:34:38;18.50;44.50
40289;DHT22;28991;52.028;5.526;2024-03-08T01:37:04;18.60;44.60
40289;DHT22;28991;52.028;5.526;2024-03-08T01:39:30;18.50;44.50
40289;DHT22;28991;52.028;5.526;2024-03-08T01:41:55;18.90;44.80
40289;DHT22;28991;52.028;5.526;2024-03-08T01:44:21;18.50;44.50
40289;DHT22;28991;52.028;5.526;2024-03-08T01:46:47;18.50;44.50
40289;DHT22;28991;52.028;5.526;2024-03-08T01:49:14;18.40;44.50
40289;DHT22;28991;52.028;5.526;2024-03-08T01:51:41;18.50;44.60
40289;DHT22;28991;52.028;5.526;2024-03-08T01:54:09;18.60;44.70
40289;DHT22;28991;52.028;5.526;2024-03-08T01:56:37;18.50;44.60
40289;DHT22;28991;52.028;5.526;2024-03-08T01:59:03;18.50;44.60
40289;DHT22;28991;52.028;5.526;2024-03-08T02:01:30;18.50;44.60
40289;DHT22;28991;52.028;5.526;2024-03-08T02:03:55;18.70;44.70
40289;DHT22;28991;52.028;5.526;2024-03-08T02:06:21;18.70;44.80
40289;DHT22;28991;52.028;5.526;2024-03-08T02:08:47;18.50;44.60
40289;DHT22;28991;52.028;5.526;2024-03-08T02:11:13;18.50;44.70
40289;DHT22;28991;52.028;5.526;2024-03-08T02:13:39;18.50;44.70
40289;DHT22;28991;52.028;5.526;2024-03-08T02:16:04;18.50;44.70
40289;DHT22;28991;52.028;5.526;2024-03-08T02:18:33;18.50;44.70
40289;DHT22;28991;52.028;5.526;2024-03-08T02:21:00;18.50;44.80
40289;DHT22;28991;52.028;5.526;2024-03-08T02:23:26;18.50;44.70
40289;DHT22;28991;52.028;5.526;2024-03-08T02:25:53;19.00;45.00
40289;DHT22;28991;52.028;5.526;2024-03-08T02:28:19;18.60;44.80
40289;DHT22;28991;52.028;5.526;2024-03-08T02:30:48;18.50;44.70
40289;DHT22;28991;52.028;5.526;2024-03-08T02:33:15;18.50;44.80
40289;DHT22;28991;52.028;5.526;2024-03-08T02:35:42;18.40;44.70
40289;DHT22;28991;52.028;5.526;2024-03-08T02:38:14;18.60;44.80
40289;DHT22;28991;52.028;5.526;2024-03-08T02:40:44;18.50;44.80
40289;DHT22;28991;52.028;5.526;2024-03-08T02:43:10;19.20;45.20
40289;DHT22;28991;52.028;5.526;2024-03-08T02:45:36;18.50;44.80
40289;DHT22;28991;52.028;5.526;2024-03-08T02:48:02;18.40;44.70
40289;DHT22;28991;52.028;5.526;2024-03-08T02:50:28;18.50;44.80
40289;DHT22;28991;52.028;5.526;2024-03-08T02:52:54;18.40;44.80
40289;DHT22;28991;52.028;5.526;2024-03-08T02:55:19;18.50;44.80
40289;DHT22;28991;52.028;5.526;2024-03-08T02:57:46;18.90;45.10
40289;DHT22;28991;52.028;5.526;2024-03-08T03:00:17;18.60;44.90
40289;DHT22;28991;52.028;5.526;2024-03-08T03:02:45;18.60;44.90
40289;DHT22;28991;52.028;5.526;2024-03-08T03:05:10;18.40;44.80
40289;DHT22;28991;52.028;5.526;2024-03-08T03:07:37;18.50;44.90
40289;DHT22;28991;52.028;5.526;2024-03-08T03:10:03;18.40;44.80
40289;DHT22;28991;52.028;5.526;2024-03-08T03:12:30;18.50;44.90
40289;DHT22;28991;52.028;5.526;2024-03-08T03:14:59;19.70;45.60
40289;DHT22;28991;52.028;5.526;2024-03-08T03:17:25;18.50;44.90
40289;DHT22;28991;52.028;5.526;2024-03-08T03:19:51;18.40;44.90
40289;DHT22;28991;52.028;5.526;2024-03-08T03:22:18;18.50;44.90
40289;DHT22;28991;52.028;5.526;2024-03-08T03:24:44;18.50;45.00
40289;DHT22;28991;52.028;5.526;2024-03-08T03:27:12;18.20;44.80
40289;DHT22;28991;52.028;5.526;2024-03-08T03:29:42;19.00;45.20
40289;DHT22;28991;52.028;5.526;2024-03-08T03:32:14;18.40;44.90
40289;DHT22;28991;52.028;5.526;2024-03-08T03:34:40;18.40;45.00
40289;DHT22;28991;52.028;5.526;2024-03-08T03:37:06;18.40;45.00
40289;DHT22;28991;52.028;5.526;2024-03-08T03:39:36;18.40;45.00
40289;DHT22;28991;52.028;5.526;2024-03-08T03:42:16;18.40;45.00
40289;DHT22;28991;52.028;5.526;2024-03-08T03:44:48;18.40;45.00
40289;DHT22;28991;52.028;5.526;2024-03-08T03:47:15;18.40;45.00
40289;DHT22;28991;52.028;5.526;2024-03-08T03:49:43;18.50;45.10
40289;DHT22;28991;52.028;5.526;2024-03-08T03:52:09;18.90;45.30
40289;DHT22;28991;52.028;5.526;2024-03-08T03:54:35;18.60;45.20
40289;DHT22;28991;52.028;5.526;2024-03-08T03:57:01;18.30;45.00
40289;DHT22;28991;52.028;5.526;2024-03-08T03:59:28;18.30;45.00
40289;DHT22;28991;52.028;5.526;2024-03-08T04:01:54;18.40;45.10
40289;DHT22;28991;52.028;5.526;2024-03-08T04:04:23;18.40;45.10
40289;DHT22;28991;52.028;5.526;2024-03-08T04:06:50;18.40;45.10
40289;DHT22;28991;52.028;5.526;2024-03-08T04:09:16;18.50;45.10
40289;DHT22;28991;52.028;5.526;2024-03-08T04:11:44;18.40;45.10
40289;DHT22;28991;52.028;5.526;2024-03-08T04:14:10;18.40;45.10
40289;DHT22;28991;52.028;5.526;2024-03-08T04:16:35;18.40;45.10
40289;DHT22;28991;52.028;5.526;2024-03-08T04:19:01;18.30;45.10
40289;DHT22;28991;52.028;5.526;2024-03-08T04:21:32;18.40;45.20
40289;DHT22;28991;52.028;5.526;2024-03-08T04:23:58;18.40;45.20
40289;DHT22;28991;52.028;5.526;2024-03-08T04:26:23;18.40;45.20
40289;DHT22;28991;52.028;5.526;2024-03-08T04:28:49;18.40;45.20
40289;DHT22;28991;52.028;5.526;2024-03-08T04:31:14;18.40;45.20
40289;DHT22;28991;52.028;5.526;2024-03-08T04:33:41;18.30;45.20
40289;DHT22;28991;52.028;5.526;2024-03-08T04:36:07;18.30;45.10
40289;DHT22;28991;52.028;5.526;2024-03-08T04:38:33;18.20;45.10
40289;DHT22;28991;52.028;5.526;2024-03-08T04:40:59;18.40;45.20
40289;DHT22;28991;52.028;5.526;2024-03-08T04:43:25;18.40;45.20
40289;DHT22;28991;52.028;5.526;2024-03-08T04:45:52;18.30;45.10
40289;DHT22;28991;52.028;5.526;2024-03-08T04:48:17;18.30;45.20
40289;DHT22;28991;52.028;5.526;2024-03-08T04:50:43;18.30;45.20
40289;DHT22;28991;52.028;5.526;2024-03-08T04:53:10;18.30;45.20
40289;DHT22;28991;52.028;5.526;2024-03-08T04:55:35;18.40;45.20
40289;DHT22;28991;52.028;5.526;2024-03-08T04:58:03;18.30;45.20
40289;DHT22;28991;52.028;5.526;2024-03-08T05:00:29;18.80;45.50
40289;DHT22;28991;52.028;5.526;2024-03-08T05:02:55;18.30;45.20
40289;DHT22;28991;52.028;5.526;2024-03-08T05:05:21;18.70;45.50
40289;DHT22;28991;52.028;5.526;2024-03-08T05:07:48;18.40;45.30
40289;DHT22;28991;52.028;5.526;2024-03-08T05:10:13;18.30;45.30
40289;DHT22;28991;52.028;5.526;2024-03-08T05:12:45;18.40;45.30
40289;DHT22;28991;52.028;5.526;2024-03-08T05:15:11;18.30;45.20
40289;DHT22;28991;52.028;5.526;2024-03-08T05:17:37;18.30;45.30
40289;DHT22;28991;52.028;5.526;2024-03-08T05:20:02;18.30;45.30
40289;DHT22;28991;52.028;5.526;2024-03-08T05:22:29;18.30;45.30
40289;DHT22;28991;52.028;5.526;2024-03-08T05:24:55;18.30;45.30
40289;DHT22;28991;52.028;5.526;2024-03-08T05:27:20;18.30;45.30
40289;DHT22;28991;52.028;5.526;2024-03-08T05:29:46;18.20;45.30
40289;DHT22;28991;52.028;5.526;2024-03-08T05:32:12;18.30;45.30
40289;DHT22;28991;52.028;5.526;2024-03-08T05:34:37;18.30;45.30
40289;DHT22;28991;52.028;5.526;2024-03-08T05:37:04;18.20;45.30
40289;DHT22;28991;52.028;5.526;2024-03-08T05:39:29;18.30;45.30
40289;DHT22;28991;52.028;5.526;2024-03-08T05:41:55;18.30;45.30
40289;DHT22;28991;52.028;5.526;2024-03-08T05:44:21;18.30;45.30
40289;DHT22;28991;52.028;5.526;2024-03-08T05:46:47;18.30;45.30
40289;DHT22;28991;52.028;5.526;2024-03-08T05:49:12;18.70;45.60
40289;DHT22;28991;52.028;5.526;2024-03-08T05:51:40;18.30;45.30
40289;DHT22;28991;52.028;5.526;2024-03-08T05:54:10;18.30;45.40
40289;DHT22;28991;52.028;5.526;2024-03-08T05:56:37;18.30;45.30
40289;DHT22;28991;52.028;5.526;2024-03-08T05:59:03;18.00;45.20
40289;DHT22;28991;52.028;5.526;2024-03-08T06:01:29;18.20;45.30
40289;DHT22;28991;52.028;5.526;2024-03-08T06:03:55;18.20;45.30
40289;DHT22;28991;52.028;5.526;2024-03-08T06:06:25;18.60;45.50
40289;DHT22;28991;52.028;5.526;2024-03-08T06:08:51;18.20;45.30
40289;DHT22;28991;52.028;5.526;2024-03-08T06:11:18;18.40;45.30
40289;DHT22;28991;52.028;5.526;2024-03-08T06:13:45;18.30;44.40
40289;DHT22;28991;52.028;5.526;2024-03-08T06:16:10;18.30;42.30
40289;DHT22;28991;52.028;5.526;2024-03-08T06:18:37;18.40;40.00
40289;DHT22;28991;52.028;5.526;2024-03-08T06:21:06;18.50;38.10
40289;DHT22;28991;52.028;5.526;2024-03-08T06:23:35;18.60;38.20
40289;DHT22;28991;52.028;5.526;2024-03-08T06:26:04;18.60;37.70
40289;DHT22;28991;52.028;5.526;2024-03-08T06:28:30;20.20;38.10
40289;DHT22;28991;52.028;5.526;2024-03-08T06:30:55;18.70;37.00
40289;DHT22;28991;52.028;5.526;2024-03-08T06:33:21;18.80;37.40
40289;DHT22;28991;52.028;5.526;2024-03-08T06:35:46;18.70;37.30
40289;DHT22;28991;52.028;5.526;2024-03-08T06:38:12;18.90;37.40
40289;DHT22;28991;52.028;5.526;2024-03-08T06:40:38;18.80;38.10
40289;DHT22;28991;52.028;5.526;2024-03-08T06:43:03;18.90;38.20
40289;DHT22;28991;52.028;5.526;2024-03-08T06:45:32;18.90;39.30
40289;DHT22;28991;52.028;5.526;2024-03-08T06:47:58;18.80;39.00
40289;DHT22;28991;52.028;5.526;2024-03-08T06:50:23;18.90;39.70
40289;DHT22;28991;52.028;5.526;2024-03-08T06:52:49;19.10;40.00
40289;DHT22;28991;52.028;5.526;2024-03-08T06:55:19;19.10;40.10
40289;DHT22;28991;52.028;5.526;2024-03-08T06:57:45;19.00;40.00
40289;DHT22;28991;52.028;5.526;2024-03-08T07:00:11;19.00;39.90
40289;DHT22;28991;52.028;5.526;2024-03-08T07:02:40;19.10;40.00
40289;DHT22;28991;52.028;5.526;2024-03-08T07:05:06;19.20;39.50
40289;DHT22;28991;52.028;5.526;2024-03-08T07:07:35;19.30;39.10
40289;DHT22;28991;52.028;5.526;2024-03-08T07:10:01;19.40;38.60
40289;DHT22;28991;52.028;5.526;2024-03-08T07:12:27;19.30;38.30
40289;DHT22;28991;52.028;5.526;2024-03-08T07:14:52;19.30;37.80
40289;DHT22;28991;52.028;5.526;2024-03-08T07:17:18;19.40;37.60
40289;DHT22;28991;52.028;5.526;2024-03-08T07:19:44;19.30;37.20
40289;DHT22;28991;52.028;5.526;2024-03-08T07:22:10;19.30;37.00
40289;DHT22;28991;52.028;5.526;2024-03-08T07:24:36;19.30;37.20
40289;DHT22;28991;52.028;5.526;2024-03-08T07:27:05;19.30;36.40
40289;DHT22;28991;52.028;5.526;2024-03-08T07:29:31;19.40;36.40
40289;DHT22;28991;52.028;5.526;2024-03-08T07:31:57;19.30;36.50
40289;DHT22;28991;52.028;5.526;2024-03-08T07:34:28;19.30;36.30
40289;DHT22;28991;52.028;5.526;2024-03-08T07:36:57;19.30;36.80
40289;DHT22;28991;52.028;5.526;2024-03-08T07:39:23;19.40;36.30
40289;DHT22;28991;52.028;5.526;2024-03-08T07:41:49;19.40;36.60
40289;DHT22;28991;52.028;5.526;2024-03-08T07:44:18;19.40;36.00
40289;DHT22;28991;52.028;5.526;2024-03-08T07:46:44;19.40;35.70
40289;DHT22;28991;52.028;5.526;2024-03-08T07:49:09;19.50;36.40
40289;DHT22;28991;52.028;5.526;2024-03-08T07:51:40;19.30;36.00
40289;DHT22;28991;52.028;5.526;2024-03-08T07:54:06;19.40;35.90
40289;DHT22;28991;52.028;5.526;2024-03-08T07:56:34;19.30;35.50
40289;DHT22;28991;52.028;5.526;2024-03-08T07:59:02;19.40;35.50
40289;DHT22;28991;52.028;5.526;2024-03-08T08:01:29;19.30;35.70
40289;DHT22;28991;52.028;5.526;2024-03-08T08:03:56;19.30;35.00
40289;DHT22;28991;52.028;5.526;2024-03-08T08:06:22;19.40;34.60
40289;DHT22;28991;52.028;5.526;2024-03-08T08:08:47;19.40;35.10
40289;DHT22;28991;52.028;5.526;2024-03-08T08:11:13;19.40;35.00
40289;DHT22;28991;52.028;5.526;2024-03-08T08:13:41;19.40;35.10
40289;DHT22;28991;52.028;5.526;2024-03-08T08:16:09;19.40;34.50
40289;DHT22;28991;52.028;5.526;2024-03-08T08:18:34;19.40;34.70
40289;DHT22;28991;52.028;5.526;2024-03-08T08:21:01;19.90;35.00
40289;DHT22;28991;52.028;5.526;2024-03-08T08:23:26;19.70;34.50
40289;DHT22;28991;52.028;5.526;2024-03-08T08:25:52;19.50;34.90
40289;DHT22;28991;52.028;5.526;2024-03-08T08:28:18;19.50;33.90
40289;DHT22;28991;52.028;5.526;2024-03-08T08:30:44;19.50;34.20
40289;DHT22;28991;52.028;5.526;2024-03-08T08:33:10;19.40;34.80
40289;DHT22;28991;52.028;5.526;2024-03-08T08:35:39;19.50;33.90
40289;DHT22;28991;52.028;5.526;2024-03-08T08:38:04;19.50;34.70
40289;DHT22;28991;52.028;5.526;2024-03-08T08:40:30;19.50;34.40
40289;DHT22;28991;52.028;5.526;2024-03-08T08:42:59;19.50;35.30
40289;DHT22;28991;52.028;5.526;2024-03-08T08:45:25;19.50;34.60
40289;DHT22;28991;52.028;5.526;2024-03-08T08:47:51;19.50;34.10
40289;DHT22;28991;52.028;5.526;2024-03-08T08:50:17;19.70;34.10
40289;DHT22;28991;52.028;5.526;2024-03-08T08:52:48;19.60;34.80
40289;DHT22;28991;52.028;5.526;2024-03-08T08:55:14;19.70;34.80
40289;DHT22;28991;52.028;5.526;2024-03-08T08:57:40;19.70;34.50
40289;DHT22;28991;52.028;5.526;2024-03-08T09:00:07;19.70;34.70
40289;DHT22;28991;52.028;5.526;2024-03-08T09:02:34;19.70;33.90
40289;DHT22;28991;52.028;5.526;2024-03-08T09:05:00;19.70;34.40
40289;DHT22;28991;52.028;5.526;2024-03-08T09:07:26;19.80;34.60
40289;DHT22;28991;52.028;5.526;2024-03-08T09:09:53;19.90;34.70
40289;DHT22;28991;52.028;5.526;2024-03-08T09:12:22;19.80;34.30
40289;DHT22;28991;52.028;5.526;2024-03-08T09:14:48;19.80;34.80
40289;DHT22;28991;52.028;5.526;2024-03-08T09:17:14;19.70;34.10
40289;DHT22;28991;52.028;5.526;2024-03-08T09:19:43;19.80;34.60
40289;DHT22;28991;52.028;5.526;2024-03-08T09:22:08;19.90;34.30
40289;DHT22;28991;52.028;5.526;2024-03-08T09:24:34;20.00;34.80
40289;DHT22;28991;52.028;5.526;2024-03-08T09:27:00;20.00;34.70
40289;DHT22;28991;52.028;5.526;2024-03-08T09:29:25;20.00;34.70
40289;DHT22;28991;52.028;5.526;2024-03-08T09:31:51;20.00;34.20
40289;DHT22;28991;52.028;5.526;2024-03-08T09:34:17;20.10;34.10
40289;DHT22;28991;52.028;5.526;2024-03-08T09:36:44;20.00;33.90
40289;DHT22;28991;52.028;5.526;2024-03-08T09:39:10;20.00;34.10
40289;DHT22;28991;52.028;5.526;2024-03-08T09:41:39;20.10;33.80
40289;DHT22;28991;52.028;5.526;2024-03-08T09:44:05;21.90;35.20
40289;DHT22;28991;52.028;5.526;2024-03-08T09:46:30;20.00;34.40
40289;DHT22;28991;52.028;5.526;2024-03-08T09:48:56;20.00;34.60
40289;DHT22;28991;52.028;5.526;2024-03-08T09:51:27;20.30;34.50
40289;DHT22;28991;52.028;5.526;2024-03-08T09:53:53;20.00;34.10
40289;DHT22;28991;52.028;5.526;2024-03-08T09:56:22;20.00;34.10
40289;DHT22;28991;52.028;5.526;2024-03-08T09:58:49;20.50;34.00
40289;DHT22;28991;52.028;5.526;2024-03-08T10:01:33;20.10;33.80
40289;DHT22;28991;52.028;5.526;2024-03-08T10:03:58;20.10;33.70
40289;DHT22;28991;52.028;5.526;2024-03-08T10:06:24;20.10;33.70
40289;DHT22;28991;52.028;5.526;2024-03-08T10:08:50;19.90;33.70
40289;DHT22;28991;52.028;5.526;2024-03-08T10:11:19;20.10;33.70
40289;DHT22;28991;52.028;5.526;2024-03-08T10:13:47;20.20;33.80
40289;DHT22;28991;52.028;5.526;2024-03-08T10:16:13;20.20;33.90
40289;DHT22;28991;52.028;5.526;2024-03-08T10:18:39;20.10;33.50
40289;DHT22;28991;52.028;5.526;2024-03-08T10:21:08;20.10;33.90
40289;DHT22;28991;52.028;5.526;2024-03-08T10:23:36;20.20;33.90
40289;DHT22;28991;52.028;5.526;2024-03-08T10:26:12;20.10;34.00
40289;DHT22;28991;52.028;5.526;2024-03-08T10:28:45;20.10;33.80
40289;DHT22;28991;52.028;5.526;2024-03-08T10:31:11;20.10;33.70
40289;DHT22;28991;52.028;5.526;2024-03-08T10:33:37;20.10;33.90
40289;DHT22;28991;52.028;5.526;2024-03-08T10:36:07;20.20;33.60
40289;DHT22;28991;52.028;5.526;2024-03-08T10:38:36;20.20;34.20
40289;DHT22;28991;52.028;5.526;2024-03-08T10:41:03;20.20;34.30
40289;DHT22;28991;52.028;5.526;2024-03-08T10:43:36;20.20;34.30
40289;DHT22;28991;52.028;5.526;2024-03-08T10:49:09;20.30;33.90
40289;DHT22;28991;52.028;5.526;2024-03-08T10:51:36;20.30;34.30
40289;DHT22;28991;52.028;5.526;2024-03-08T10:54:03;20.30;34.60
40289;DHT22;28991;52.028;5.526;2024-03-08T10:56:30;20.30;34.50
40289;DHT22;28991;52.028;5.526;2024-03-08T10:58:56;20.30;34.50
40289;DHT22;28991;52.028;5.526;2024-03-08T11:01:21;20.30;34.50
40289;DHT22;28991;52.028;5.526;2024-03-08T11:03:48;20.30;33.90
40289;DHT22;28991;52.028;5.526;2024-03-08T11:06:22;20.30;34.10
40289;DHT22;28991;52.028;5.526;2024-03-08T11:08:48;20.30;34.30
40289;DHT22;28991;52.028;5.526;2024-03-08T11:11:26;20.20;34.50
40289;DHT22;28991;52.028;5.526;2024-03-08T11:13:53;20.30;34.60
40289;DHT22;28991;52.028;5.526;2024-03-08T11:18:55;20.10;35.20
40289;DHT22;28991;52.028;5.526;2024-03-08T11:21:25;20.00;35.40
40289;DHT22;28991;52.028;5.526;2024-03-08T11:24:02;21.10;35.50
40289;DHT22;28991;52.028;5.526;2024-03-08T11:26:29;20.00;33.60
40289;DHT22;28991;52.028;5.526;2024-03-08T11:34:35;20.00;33.90
40289;DHT22;28991;52.028;5.526;2024-03-08T11:37:03;20.90;34.40
40289;DHT22;28991;52.028;5.526;2024-03-08T11:39:29;20.10;34.00
40289;DHT22;28991;52.028;5.526;2024-03-08T11:41:56;20.10;34.00
40289;DHT22;28991;52.028;5.526;2024-03-08T11:44:21;20.00;34.10
40289;DHT22;28991;52.028;5.526;2024-03-08T11:46:47;20.10;34.00
40289;DHT22;28991;52.028;5.526;2024-03-08T11:49:13;20.10;34.50
40289;DHT22;28991;52.028;5.526;2024-03-08T11:51:40;20.10;33.80
40289;DHT22;28991;52.028;5.526;2024-03-08T11:54:06;20.10;33.70
40289;DHT22;28991;52.028;5.526;2024-03-08T11:56:35;20.10;34.00
40289;DHT22;28991;52.028;5.526;2024-03-08T11:59:01;20.20;34.50
40289;DHT22;28991;52.028;5.526;2024-03-08T12:01:27;20.20;34.90
40289;DHT22;28991;52.028;5.526;2024-03-08T12:03:57;20.10;34.30
40289;DHT22;28991;52.028;5.526;2024-03-08T12:06:24;20.20;33.70
40289;DHT22;28991;52.028;5.526;2024-03-08T12:08:50;20.20;34.30
40289;DHT22;28991;52.028;5.526;2024-03-08T12:11:19;20.20;33.50
40289;DHT22;28991;52.028;5.526;2024-03-08T12:13:48;20.30;34.10
40289;DHT22;28991;52.028;5.526;2024-03-08T12:16:19;20.30;33.90
40289;DHT22;28991;52.028;5.526;2024-03-08T12:18:47;20.20;33.20
40289;DHT22;28991;52.028;5.526;2024-03-08T12:21:14;20.60;34.40
40289;DHT22;28991;52.028;5.526;2024-03-08T12:23:44;20.50;34.30
40289;DHT22;28991;52.028;5.526;2024-03-08T12:26:16;20.30;34.60
40289;DHT22;28991;52.028;5.526;2024-03-08T12:28:43;20.30;33.70
40289;DHT22;28991;52.028;5.526;2024-03-08T12:31:16;19.30;33.10
40289;DHT22;28991;52.028;5.526;2024-03-08T12:33:51;20.30;33.30
40289;DHT22;28991;52.028;5.526;2024-03-08T12:36:18;20.30;33.70
40289;DHT22;28991;52.028;5.526;2024-03-08T12:38:48;20.50;33.80
40289;DHT22;28991;52.028;5.526;2024-03-08T12:41:18;20.40;34.00
40289;DHT22;28991;52.028;5.526;2024-03-08T12:43:45;20.50;34.00
40289;DHT22;28991;52.028;5.526;2024-03-08T12:46:14;20.50;34.20
40289;DHT22;28991;52.028;5.526;2024-03-08T12:48:40;20.70;34.30
40289;DHT22;28991;52.028;5.526;2024-03-08T12:51:09;20.60;34.10
40289;DHT22;28991;52.028;5.526;2024-03-08T12:53:35;20.70;34.30
40289;DHT22;28991;52.028;5.526;2024-03-08T12:56:01;20.70;34.10
40289;DHT22;28991;52.028;5.526;2024-03-08T12:58:26;20.70;34.00
40289;DHT22;28991;52.028;5.526;2024-03-08T13:00:52;20.80;34.40
40289;DHT22;28991;52.028;5.526;2024-03-08T13:03:17;20.80;34.40
40289;DHT22;28991;52.028;5.526;2024-03-08T13:05:43;20.80;34.30
40289;DHT22;28991;52.028;5.526;2024-03-08T13:08:09;20.80;34.40
40289;DHT22;28991;52.028;5.526;2024-03-08T13:10:44;20.80;34.60
40289;DHT22;28991;52.028;5.526;2024-03-08T13:13:10;20.90;34.60
40289;DHT22;28991;52.028;5.526;2024-03-08T13:15:37;20.90;34.40
40289;DHT22;28991;52.028;5.526;2024-03-08T13:18:02;20.80;34.20
40289;DHT22;28991;52.028;5.526;2024-03-08T13:20:28;20.80;34.30
40289;DHT22;28991;52.028;5.526;2024-03-08T13:22:55;20.80;34.70
40289;DHT22;28991;52.028;5.526;2024-03-08T13:25:21;20.80;33.60
40289;DHT22;28991;52.028;5.526;2024-03-08T13:27:47;20.90;33.50
40289;DHT22;28991;52.028;5.526;2024-03-08T13:30:14;20.80;33.90
40289;DHT22;28991;52.028;5.526;2024-03-08T13:32:43;20.80;33.70
40289;DHT22;28991;52.028;5.526;2024-03-08T13:35:10;20.80;34.10
40289;DHT22;28991;52.028;5.526;2024-03-08T13:37:42;20.90;34.30
40289;DHT22;28991;52.028;5.526;2024-03-08T13:40:09;20.90;34.50
40289;DHT22;28991;52.028;5.526;2024-03-08T13:42:42;20.90;34.50
40289;DHT22;28991;52.028;5.526;2024-03-08T13:45:11;20.80;34.60
40289;DHT22;28991;52.028;5.526;2024-03-08T13:47:37;21.00;34.70
40289;DHT22;28991;52.028;5.526;2024-03-08T13:50:03;20.90;34.50
40289;DHT22;28991;52.028;5.526;2024-03-08T13:52:29;20.90;34.00
40289;DHT22;28991;52.028;5.526;2024-03-08T13:54:55;21.00;34.70
40289;DHT22;28991;52.028;5.526;2024-03-08T13:57:21;21.00;34.50
40289;DHT22;28991;52.028;5.526;2024-03-08T13:59:48;21.00;34.30
40289;DHT22;28991;52.028;5.526;2024-03-08T14:02:14;21.00;34.60
40289;DHT22;28991;52.028;5.526;2024-03-08T14:04:41;21.00;34.40
40289;DHT22;28991;52.028;5.526;2024-03-08T14:07:07;21.00;34.40
40289;DHT22;28991;52.028;5.526;2024-03-08T14:09:34;21.10;34.20
40289;DHT22;28991;52.028;5.526;2024-03-08T14:12:03;21.10;34.30
40289;DHT22;28991;52.028;5.526;2024-03-08T14:14:35;21.10;34.00
40289;DHT22;28991;52.028;5.526;2024-03-08T14:17:03;21.00;33.80
40289;DHT22;28991;52.028;5.526;2024-03-08T14:19:29;21.00;33.30
40289;DHT22;28991;52.028;5.526;2024-03-08T14:21:59;21.10;33.90
40289;DHT22;28991;52.028;5.526;2024-03-08T14:24:25;21.10;33.30
40289;DHT22;28991;52.028;5.526;2024-03-08T14:26:51;21.00;34.00
40289;DHT22;28991;52.028;5.526;2024-03-08T14:29:17;21.00;33.70
40289;DHT22;28991;52.028;5.526;2024-03-08T14:31:44;21.00;34.20
40289;DHT22;28991;52.028;5.526;2024-03-08T14:34:10;21.00;34.20
40289;DHT22;28991;52.028;5.526;2024-03-08T14:36:36;21.00;33.80
40289;DHT22;28991;52.028;5.526;2024-03-08T14:39:01;21.00;34.00
40289;DHT22;28991;52.028;5.526;2024-03-08T14:41:27;21.00;33.80
40289;DHT22;28991;52.028;5.526;2024-03-08T14:43:53;21.00;33.80
40289;DHT22;28991;52.028;5.526;2024-03-08T14:46:19;21.00;34.20
40289;DHT22;28991;52.028;5.526;2024-03-08T14:48:46;20.90;33.30
40289;DHT22;28991;52.028;5.526;2024-03-08T14:51:13;21.00;33.70
40289;DHT22;28991;52.028;5.526;2024-03-08T14:53:42;21.00;33.30
40289;DHT22;28991;52.028;5.526;2024-03-08T14:56:11;21.00;33.60
40289;DHT22;28991;52.028;5.526;2024-03-08T14:58:37;21.00;33.90
40289;DHT22;28991;52.028;5.526;2024-03-08T15:01:04;21.00;34.10
40289;DHT22;28991;52.028;5.526;2024-03-08T15:03:35;22.60;33.60
40289;DHT22;28991;52.028;5.526;2024-03-08T15:06:01;20.90;33.60
40289;DHT22;28991;52.028;5.526;2024-03-08T15:08:27;20.90;34.00
40289;DHT22;28991;52.028;5.526;2024-03-08T15:10:52;21.00;34.10
40289;DHT22;28991;52.028;5.526;2024-03-08T15:13:21;20.90;34.00
40289;DHT22;28991;52.028;5.526;2024-03-08T15:15:49;20.90;33.60
40289;DHT22;28991;52.028;5.526;2024-03-08T15:18:21;20.90;33.40
40289;DHT22;28991;52.028;5.526;2024-03-08T15:20:47;20.70;33.60
40289;DHT22;28991;52.028;5.526;2024-03-08T15:23:13;20.80;33.70
40289;DHT22;28991;52.028;5.526;2024-03-08T15:25:39;20.80;33.80
40289;DHT22;28991;52.028;5.526;2024-03-08T15:28:07;20.80;34.30
40289;DHT22;28991;52.028;5.526;2024-03-08T15:30:39;20.70;33.60
40289;DHT22;28991;52.028;5.526;2024-03-08T15:33:05;20.70;33.20
40289;DHT22;28991;52.028;5.526;2024-03-08T15:35:35;20.60;33.50
40289;DHT22;28991;52.028;5.526;2024-03-08T15:38:03;20.70;33.30
40289;DHT22;28991;52.028;5.526;2024-03-08T15:40:29;20.60;33.20